LOWW Airport Information

Runway Information
Runway 11 Length 11483 ft width 148 ft Elevation 575 ft Threshold N/A Heading 116
Runway 29 Length 11483 ft Width 148 ft Elevation 600 ft Threshold N/A Heading 296
Runway 16 Length 11811 ft width 148 ft Elevation 597 ft Threshold N/A Heading 164
Runway 34 Length 11811 ft Width 148 ft Elevation 586 ft Threshold N/A Heading 344
Airport Frequencies
Type APP Name WIEN RADAR Frequency 128.2 MHZ
Type ATIS Name ATIS Frequency 121.725 MHZ
Type CLD Name WIEN CLNC Frequency 122.125 MHZ
Type DIR Name DIRECTOR Frequency 119.8 MHZ
Type GND Name WIEN GND Frequency 121.6 MHZ
Type INFO Name INFO Frequency 118.525 MHZ
Type RMP Name VIENNA ICE Frequency 131.625 MHZ
Type TWR Name WIEN TWR Frequency 119.4 MHZ
Airport Navaids
Type NDB Name Bruck Frequency 408 KHZ
Type VOR-DME Name Fischamend Frequency 110400 KHZ
Type VOR-DME Name Sollenau Frequency 115500 KHZ
Type NDB Name Steinhof Frequency 293 KHZ
Type VOR-DME Name Wagram Frequency 112200 KHZ
Type NDB Name Schwechat Frequency 303 KHZ
Airport Weather Information & NOTAM
ADDS - METARS form results

(0243 UTC 07 February 2023)
Data provider http://aviationweather.gov/metar/data/
 
METAR text: LOWW 070220Z 31007KT CAVOK M06/M09 Q1040 NOSIG
Conditions at: LOWW (VIENNA/SCHWECHAT, AT) observed 0220 UTC 07 February 2023
Temperature: -6.0°C (21°F)
Dewpoint: -9.0°C (16°F) [RH = 79%]
Pressure (altimeter): 30.71 inches Hg (1040.0 mb)
Winds: from the NW (310 degrees) at 8 MPH (7 knots; 3.6 m/s)
Visibility: 6 or more miles (10+ km)
Ceiling: ceiling and visibility are OK
Clouds: unknown
Weather: no significant weather observed at this time

METAR text: LOWW 070150Z 30006KT CAVOK M06/M09 Q1040 NOSIG
Conditions at: LOWW (VIENNA/SCHWECHAT, AT) observed 0150 UTC 07 February 2023
Temperature: -6.0°C (21°F)
Dewpoint: -9.0°C (16°F) [RH = 79%]
Pressure (altimeter): 30.71 inches Hg (1040.0 mb)
Winds: from the WNW (300 degrees) at 7 MPH (6 knots; 3.1 m/s)
Visibility: 6 or more miles (10+ km)
Ceiling: ceiling and visibility are OK
Clouds: unknown
Weather: no significant weather observed at this time

Forecast for: LOWW (VIENNA/SCHWECHAT, AT)
Text: TAF LOWW 070215Z 0703/0809 33007KT CAVOK TXM00/0714Z TNM07/0706Z
Forecast period: 0300 UTC 07 February 2023 to 0900 UTC 08 February 2023
Forecast type: FROM: standard forecast or significant change
Winds: from the NNW (330 degrees) at 8 MPH (7 knots; 3.6 m/s)
Visibility: 6 or more miles (10+ km)
Ceiling: unknown
Clouds: missing
Weather: no significant weather forecast for this period